createdAt,value
2018-04-22T00:01:41.264Z,9.70
2018-04-22T00:04:08.234Z,10.87
2018-04-22T00:06:34.431Z,9.47
2018-04-22T00:09:00.609Z,7.83
2018-04-22T00:11:26.845Z,7.90
2018-04-22T00:13:53.063Z,10.07
2018-04-22T00:16:19.997Z,8.30
2018-04-22T00:18:46.947Z,5.50
2018-04-22T00:21:13.167Z,9.90
2018-04-22T00:23:39.385Z,8.77
2018-04-22T00:26:05.627Z,5.93
2018-04-22T00:28:31.811Z,7.00
2018-04-22T00:30:58.778Z,6.60
2018-04-22T00:33:24.987Z,10.63
2018-04-22T00:35:51.193Z,9.40
2018-04-22T00:38:17.442Z,4.83
2018-04-22T00:40:43.673Z,6.40
2018-04-22T00:43:09.907Z,7.10
2018-04-22T00:45:36.129Z,8.07
2018-04-22T00:48:02.354Z,8.23
2018-04-22T00:50:28.546Z,9.80
2018-04-22T00:52:54.736Z,9.50
2018-04-22T00:55:20.962Z,6.90
2018-04-22T00:57:47.292Z,9.97
2018-04-22T01:00:13.523Z,10.47
2018-04-22T01:02:40.467Z,9.00
2018-04-22T01:05:07.426Z,10.23
2018-04-22T01:07:33.664Z,9.40
2018-04-22T01:09:59.878Z,6.87
2018-04-22T01:12:26.102Z,7.20
2018-04-22T01:14:52.271Z,9.53
2018-04-22T01:17:18.528Z,8.57
2018-04-22T01:19:45.475Z,10.83
2018-04-22T01:22:11.670Z,5.63
2018-04-22T01:24:37.894Z,7.73
2018-04-22T01:27:04.131Z,6.30
2018-04-22T01:29:30.317Z,8.10
2018-04-22T01:31:56.540Z,7.37
2018-04-22T01:34:22.747Z,8.23
2018-04-22T01:36:48.975Z,9.47
2018-04-22T01:39:15.209Z,6.37
2018-04-22T01:41:41.603Z,7.87
2018-04-22T01:44:08.563Z,8.07
2018-04-22T01:46:34.773Z,6.70
2018-04-22T01:49:00.970Z,7.00
2018-04-22T01:51:27.976Z,7.70
2018-04-22T01:53:54.217Z,7.53
2018-04-22T01:56:20.413Z,9.60
2018-04-22T01:58:46.649Z,4.73
2018-04-22T02:01:12.836Z,6.17
2018-04-22T02:03:39.032Z,6.87
2018-04-22T02:06:05.282Z,7.00
2018-04-22T02:08:31.496Z,8.90
2018-04-22T02:10:57.729Z,7.30
2018-04-22T02:13:24.659Z,6.77
2018-04-22T02:15:50.933Z,9.43
2018-04-22T02:18:17.175Z,4.03
2018-04-22T02:20:43.365Z,6.33
2018-04-22T02:23:09.590Z,6.57
2018-04-22T02:25:36.569Z,7.07
2018-04-22T02:28:02.823Z,6.43
2018-04-22T02:30:29.063Z,6.37
2018-04-22T02:32:55.304Z,8.67
2018-04-22T02:35:21.559Z,7.53
2018-04-22T02:37:48.511Z,5.90
2018-04-22T02:40:15.495Z,5.90
2018-04-22T02:42:42.439Z,8.27
2018-04-22T02:45:08.733Z,6.80
2018-04-22T02:47:35.059Z,6.97
2018-04-22T02:50:01.306Z,11.23
2018-04-22T02:52:29.023Z,22.73
2018-04-22T02:54:55.246Z,10.07
2018-04-22T02:57:21.482Z,10.90
2018-04-22T02:59:47.700Z,7.87
2018-04-22T03:02:13.917Z,7.67
2018-04-22T03:04:40.152Z,7.77
2018-04-22T03:07:06.366Z,9.13
2018-04-22T03:09:32.580Z,7.60
2018-04-22T03:11:59.541Z,13.20
2018-04-22T03:14:26.523Z,7.90
2018-04-22T03:16:52.746Z,7.70
2018-04-22T03:19:19.704Z,10.93
2018-04-22T03:21:46.368Z,5.77
2018-04-22T03:24:13.312Z,6.93
2018-04-22T03:26:39.498Z,9.67
2018-04-22T03:29:05.690Z,9.87
2018-04-22T03:31:32.352Z,9.13
2018-04-22T03:33:58.634Z,5.17
2018-04-22T03:36:25.592Z,13.07
2018-04-22T03:38:51.817Z,7.87
2018-04-22T03:41:18.034Z,5.03
2018-04-22T03:43:44.309Z,6.17
2018-04-22T03:46:10.552Z,9.27
2018-04-22T03:48:38.255Z,11.13
2018-04-22T03:51:04.453Z,9.97
2018-04-22T03:53:30.693Z,8.90
2018-04-22T03:55:57.633Z,6.50
2018-04-22T03:58:25.332Z,7.07
2018-04-22T04:00:51.551Z,5.17
2018-04-22T04:03:18.493Z,11.87
2018-04-22T04:05:45.433Z,5.83
2018-04-22T04:08:12.367Z,8.80
2018-04-22T04:10:38.587Z,13.07
2018-04-22T04:13:04.807Z,7.27
2018-04-22T04:15:31.029Z,6.33
2018-04-22T04:17:57.260Z,8.77
2018-04-22T04:20:23.479Z,6.70
2018-04-22T04:22:49.683Z,7.77
2018-04-22T04:25:15.910Z,6.23
2018-04-22T04:27:42.121Z,6.73
2018-04-22T04:30:08.322Z,8.70
2018-04-22T04:32:35.267Z,8.10
2018-04-22T04:35:02.222Z,12.77
2018-04-22T04:37:29.147Z,8.23
2018-04-22T04:39:56.128Z,6.57
2018-04-22T04:42:23.105Z,7.53
2018-04-22T04:44:49.319Z,8.57
2018-04-22T04:47:15.527Z,5.80
2018-04-22T04:49:42.494Z,7.20
2018-04-22T04:52:08.755Z,8.83
2018-04-22T04:54:35.003Z,9.93
2018-04-22T04:57:01.213Z,7.07
2018-04-22T04:59:28.171Z,6.37
2018-04-22T05:01:54.823Z,7.73
2018-04-22T05:04:21.751Z,7.03
2018-04-22T05:06:47.967Z,6.00
2018-04-22T05:09:14.170Z,13.07
2018-04-22T05:11:41.748Z,6.53
2018-04-22T05:14:08.718Z,9.20
2018-04-22T05:16:34.945Z,8.57
2018-04-22T05:19:01.148Z,8.50
2018-04-22T05:21:27.356Z,7.60
2018-04-22T05:23:53.554Z,11.43
2018-04-22T05:26:19.786Z,6.03
2018-04-22T05:28:45.974Z,7.53
2018-04-22T05:31:12.266Z,7.37
2018-04-22T05:33:38.429Z,7.93
2018-04-22T05:36:05.360Z,5.27
2018-04-22T05:38:32.293Z,11.00
2018-04-22T05:40:58.542Z,6.40
2018-04-22T05:43:25.490Z,6.87
2018-04-22T05:45:51.940Z,5.27
2018-04-22T05:48:18.150Z,11.70
2018-04-22T05:50:44.388Z,5.70
2018-04-22T05:53:11.402Z,7.43
2018-04-22T05:55:37.618Z,10.57
2018-04-22T05:58:03.869Z,25.67
2018-04-22T06:00:30.096Z,30.63
2018-04-22T06:02:56.360Z,22.87
2018-04-22T06:05:22.557Z,32.43
2018-04-22T06:07:48.780Z,30.67
2018-04-22T06:10:14.992Z,28.73
2018-04-22T06:12:41.203Z,27.90
2018-04-22T06:15:08.170Z,17.13
2018-04-22T06:17:34.349Z,44.30
2018-04-22T06:20:00.586Z,35.47
2018-04-22T06:22:27.554Z,28.30
2018-04-22T06:24:53.794Z,15.57
2018-04-22T06:27:20.019Z,20.67
2018-04-22T06:29:46.245Z,24.57
2018-04-22T06:32:13.256Z,29.50
2018-04-22T06:34:39.486Z,24.80
2018-04-22T06:37:05.672Z,26.53
2018-04-22T06:39:31.894Z,29.03
2018-04-22T06:41:58.138Z,30.97
2018-04-22T06:44:24.378Z,20.93
2018-04-22T06:46:51.344Z,26.63
2018-04-22T06:49:17.581Z,20.87
2018-04-22T06:51:43.851Z,23.03
2018-04-22T06:54:10.072Z,13.97
2018-04-22T06:56:36.302Z,15.47
2018-04-22T06:59:02.534Z,18.33
2018-04-22T07:01:28.804Z,13.33
2018-04-22T07:03:55.039Z,14.80
2018-04-22T07:06:21.231Z,12.90
2018-04-22T07:08:48.166Z,14.07
2018-04-22T07:11:15.118Z,19.60
2018-04-22T07:13:41.402Z,13.63
2018-04-22T07:16:07.631Z,11.93
2018-04-22T07:18:33.842Z,13.73
2018-04-22T07:21:00.808Z,11.20
2018-04-22T07:23:27.776Z,12.73
2018-04-22T07:25:54.020Z,7.00
2018-04-22T07:28:20.240Z,10.00
2018-04-22T07:30:46.463Z,9.23
2018-04-22T07:33:12.705Z,11.43
2018-04-22T07:35:38.994Z,13.13
2018-04-22T07:38:05.223Z,16.10
2018-04-22T07:40:31.451Z,12.10
2018-04-22T07:42:57.710Z,8.77
2018-04-22T07:45:24.677Z,12.13
2018-04-22T07:47:50.866Z,12.40
2018-04-22T07:50:17.827Z,13.53
2018-04-22T07:52:44.028Z,12.70
2018-04-22T07:55:10.974Z,10.73
2018-04-22T07:57:37.916Z,12.07
2018-04-22T08:00:04.861Z,13.37
2018-04-22T08:02:31.064Z,14.50
2018-04-22T08:04:58.467Z,9.63
2018-04-22T08:07:24.709Z,7.60
2018-04-22T08:09:50.943Z,9.57
2018-04-22T08:12:17.179Z,10.30
2018-04-22T08:14:43.444Z,12.20
2018-04-22T08:17:09.677Z,15.93
2018-04-22T08:19:35.881Z,17.33
2018-04-22T08:22:02.877Z,12.70
2018-04-22T08:24:29.136Z,17.70
2018-04-22T08:26:55.326Z,18.57
2018-04-22T08:29:22.323Z,13.43
2018-04-22T08:31:48.639Z,31.20
2018-04-22T08:34:14.867Z,23.40
2018-04-22T08:36:41.195Z,14.93
2018-04-22T08:39:07.524Z,16.00
2018-04-22T08:41:35.238Z,10.57
2018-04-22T08:44:01.477Z,22.53
2018-04-22T08:46:27.982Z,16.47
2018-04-22T08:48:54.284Z,15.90
2018-04-22T08:51:21.256Z,14.37
2018-04-22T08:53:47.465Z,29.90
2018-04-22T08:56:13.675Z,44.73
2018-04-22T08:58:39.865Z,18.97
2018-04-22T09:01:06.815Z,21.10
2018-04-22T09:03:33.057Z,17.17
2018-04-22T09:05:59.324Z,26.23
2018-04-22T09:08:25.603Z,15.53
2018-04-22T09:10:52.607Z,30.13
2018-04-22T09:13:18.830Z,20.40
2018-04-22T09:15:45.025Z,20.60
2018-04-22T09:18:11.284Z,24.60
2018-04-22T09:20:38.237Z,10.90
2018-04-22T09:23:04.461Z,30.30
2018-04-22T09:25:31.405Z,10.27
2018-04-22T09:27:57.691Z,17.80
2018-04-22T09:30:23.966Z,25.30
2018-04-22T09:32:50.138Z,22.67
2018-04-22T09:35:16.355Z,35.13
2018-04-22T09:37:42.562Z,56.83
2018-04-22T09:40:08.782Z,64.97
2018-04-22T09:42:35.008Z,51.30
2018-04-22T09:45:01.238Z,40.97
2018-04-22T09:47:27.480Z,39.23
2018-04-22T09:49:53.722Z,35.00
2018-04-22T09:52:20.634Z,30.90
2018-04-22T09:54:47.635Z,23.97
2018-04-22T09:57:13.813Z,33.53
2018-04-22T09:59:40.040Z,35.23
2018-04-22T10:05:11.632Z,27.30
2018-04-22T10:07:37.856Z,25.93
2018-04-22T10:10:04.062Z,31.07
2018-04-22T10:12:30.274Z,17.87
2018-04-22T10:14:56.482Z,22.97
2018-04-22T10:17:22.686Z,27.73
2018-04-22T10:19:49.665Z,19.50
2018-04-22T10:22:16.623Z,24.67
2018-04-22T10:24:42.878Z,19.70
2018-04-22T10:27:09.843Z,19.67
2018-04-22T10:29:36.061Z,21.10
2018-04-22T10:32:02.325Z,19.83
2018-04-22T10:34:28.587Z,26.80
2018-04-22T10:36:55.602Z,34.37
2018-04-22T10:39:21.817Z,30.07
2018-04-22T10:41:48.060Z,16.30
2018-04-22T10:44:14.291Z,19.50
2018-04-22T10:46:40.589Z,17.83
2018-04-22T10:49:06.772Z,11.00
2018-04-22T10:51:33.023Z,19.17
2018-04-22T10:54:00.009Z,24.73
2018-04-22T10:56:26.965Z,13.57
2018-04-22T10:58:54.007Z,18.40
2018-04-22T11:01:20.257Z,19.53
2018-04-22T11:03:46.490Z,16.97
2018-04-22T11:06:12.719Z,34.27
2018-04-22T11:08:39.695Z,22.33
2018-04-22T11:11:06.680Z,24.00
2018-04-22T11:13:32.905Z,28.03
2018-04-22T11:15:59.095Z,25.23
2018-04-22T11:18:25.351Z,22.37
2018-04-22T11:20:51.575Z,16.40
2018-04-22T11:23:17.803Z,14.43
2018-04-22T11:25:44.760Z,24.73
2018-04-22T11:28:10.973Z,16.57
2018-04-22T11:30:37.214Z,22.53
2018-04-22T11:33:03.387Z,14.33
2018-04-22T11:35:30.346Z,26.37
2018-04-22T11:37:56.547Z,17.93
2018-04-22T11:40:22.740Z,10.83
2018-04-22T11:42:49.001Z,13.37
2018-04-22T11:45:15.197Z,16.37
2018-04-22T11:47:42.150Z,16.47
2018-04-22T11:50:09.121Z,14.47
2018-04-22T11:52:35.354Z,14.33
2018-04-22T11:55:01.564Z,14.50
2018-04-22T11:57:27.784Z,11.93
2018-04-22T11:59:54.125Z,9.87
2018-04-22T12:02:22.226Z,9.13
2018-04-22T12:04:49.942Z,15.10
2018-04-22T12:07:16.166Z,12.13
2018-04-22T12:09:42.406Z,12.40
2018-04-22T12:12:08.629Z,15.27
2018-04-22T12:14:34.929Z,18.20
2018-04-22T12:17:01.151Z,21.13
2018-04-22T12:19:27.380Z,16.03
2018-04-22T12:21:53.625Z,19.90
2018-04-22T12:24:19.795Z,12.30
2018-04-22T12:26:46.012Z,11.03
2018-04-22T12:29:12.261Z,21.90
2018-04-22T12:31:38.463Z,9.57
2018-04-22T12:34:05.493Z,20.73
2018-04-22T12:36:31.717Z,19.67
2018-04-22T12:38:57.930Z,12.23
2018-04-22T12:41:24.176Z,18.20
2018-04-22T12:43:50.370Z,18.43
2018-04-22T12:46:16.578Z,10.33
2018-04-22T12:48:54.665Z,9.17
2018-04-22T12:51:20.944Z,12.07
2018-04-22T12:53:47.182Z,8.97
2018-04-22T12:56:13.391Z,11.07
2018-04-22T12:58:39.602Z,15.47
2018-04-22T13:01:05.820Z,17.67
2018-04-22T13:03:32.014Z,11.20
2018-04-22T13:05:59.037Z,17.23
2018-04-22T13:08:25.221Z,13.93
2018-04-22T13:10:51.420Z,18.10
2018-04-22T13:13:17.669Z,7.50
2018-04-22T13:15:43.894Z,13.97
2018-04-22T13:18:10.080Z,8.93
2018-04-22T13:20:36.315Z,13.07
2018-04-22T13:23:02.550Z,14.77
2018-04-22T13:25:28.776Z,10.47
2018-04-22T13:27:54.984Z,12.90
2018-04-22T13:30:21.927Z,11.77
2018-04-22T13:32:48.184Z,12.80
2018-04-22T13:35:15.192Z,15.30
2018-04-22T13:37:41.418Z,21.90
2018-04-22T13:40:07.615Z,7.33
2018-04-22T13:42:33.842Z,18.20
2018-04-22T13:45:00.824Z,11.27
2018-04-22T13:47:27.804Z,16.70
2018-04-22T13:49:54.008Z,22.50
2018-04-22T13:52:21.027Z,17.83
2018-04-22T13:54:47.242Z,17.37
2018-04-22T13:57:13.492Z,22.07
2018-04-22T13:59:39.708Z,18.13
2018-04-22T14:02:05.946Z,21.47
2018-04-22T14:04:32.155Z,23.63
2018-04-22T14:06:59.109Z,23.60
2018-04-22T14:09:25.361Z,20.80
2018-04-22T14:11:51.607Z,24.80
2018-04-22T14:14:17.831Z,29.23
2018-04-22T14:16:44.029Z,26.97
2018-04-22T14:19:10.270Z,29.47
2018-04-22T14:21:37.399Z,24.10
2018-04-22T14:24:03.590Z,36.17
2018-04-22T14:26:29.812Z,34.97
2018-04-22T14:28:56.018Z,36.17
2018-04-22T14:31:22.250Z,27.17
2018-04-22T14:33:48.449Z,37.57
2018-04-22T14:36:15.400Z,28.97
2018-04-22T14:38:42.356Z,39.07
2018-04-22T14:41:08.668Z,32.53
2018-04-22T14:43:34.870Z,38.03
2018-04-22T14:46:01.062Z,34.43
2018-04-22T14:48:27.313Z,42.03
2018-04-22T14:50:53.553Z,32.97
2018-04-22T14:53:19.767Z,44.90
2018-04-22T14:55:45.983Z,53.53
2018-04-22T14:58:12.983Z,36.27
2018-04-22T15:00:39.983Z,33.47
2018-04-22T15:03:06.976Z,37.40
2018-04-22T15:05:33.208Z,31.30
2018-04-22T15:07:59.438Z,43.73
2018-04-22T15:10:25.657Z,50.03
2018-04-22T15:12:51.865Z,33.97
2018-04-22T15:15:18.831Z,26.07
2018-04-22T15:17:45.045Z,37.27
2018-04-22T15:20:12.013Z,28.37
2018-04-22T15:22:38.204Z,36.37
2018-04-22T15:25:05.216Z,32.37
2018-04-22T15:27:31.407Z,33.50
2018-04-22T15:29:57.640Z,27.57
2018-04-22T15:32:23.834Z,25.67
2018-04-22T15:34:50.071Z,32.53
2018-04-22T15:37:16.298Z,28.20
2018-04-22T15:39:42.538Z,28.70
2018-04-22T15:42:08.833Z,37.27
2018-04-22T15:44:35.769Z,26.23
2018-04-22T15:47:02.727Z,38.60
2018-04-22T15:49:28.965Z,31.23
2018-04-22T15:51:55.820Z,25.93
2018-04-22T15:54:22.041Z,23.50
2018-04-22T15:56:48.235Z,29.30
2018-04-22T15:59:15.219Z,29.83
2018-04-22T16:01:42.193Z,24.83
2018-04-22T16:04:08.448Z,27.07
2018-04-22T16:06:34.671Z,24.63
2018-04-22T16:09:00.925Z,36.33
2018-04-22T16:11:27.115Z,21.87
2018-04-22T16:13:53.349Z,14.10
2018-04-22T16:16:19.603Z,22.80
2018-04-22T16:18:45.833Z,25.03
2018-04-22T16:21:12.057Z,29.70
2018-04-22T16:23:38.265Z,24.17
2018-04-22T16:26:04.494Z,24.43
2018-04-22T16:28:30.692Z,26.90
2018-04-22T16:30:56.906Z,20.70
2018-04-22T16:33:23.143Z,25.60
2018-04-22T16:35:49.418Z,25.03
2018-04-22T16:38:15.567Z,21.33
2018-04-22T16:40:42.512Z,28.57
2018-04-22T16:43:08.706Z,20.40
2018-04-22T16:45:34.897Z,24.23
2018-04-22T16:48:01.168Z,19.30
2018-04-22T16:50:27.392Z,25.13
2018-04-22T16:52:53.614Z,21.20
2018-04-22T16:55:19.821Z,32.33
2018-04-22T16:57:46.008Z,18.43
2018-04-22T17:00:12.946Z,16.47
2018-04-22T17:02:39.238Z,24.30
2018-04-22T17:05:06.184Z,17.53
2018-04-22T17:07:33.171Z,17.97
2018-04-22T17:09:59.420Z,22.90
2018-04-22T17:12:26.392Z,19.90
2018-04-22T17:14:52.671Z,23.90
2018-04-22T17:17:18.875Z,15.67
2018-04-22T17:19:45.072Z,15.07
2018-04-22T17:22:11.288Z,16.30
2018-04-22T17:24:37.508Z,21.20
2018-04-22T17:27:03.760Z,21.27
2018-04-22T17:29:29.979Z,21.17
2018-04-22T17:31:56.240Z,19.63
2018-04-22T17:34:22.457Z,19.83
2018-04-22T17:36:48.711Z,31.13
2018-04-22T17:39:14.970Z,16.83
2018-04-22T17:41:41.658Z,19.67
2018-04-22T17:44:07.883Z,19.83
2018-04-22T17:46:34.875Z,17.23
2018-04-22T17:49:01.084Z,19.30
2018-04-22T17:51:27.984Z,18.03
2018-04-22T17:53:54.238Z,17.40
2018-04-22T17:56:21.223Z,15.17
2018-04-22T17:58:47.433Z,15.47
2018-04-22T18:01:13.628Z,13.70
2018-04-22T18:03:39.859Z,18.60
2018-04-22T18:06:06.091Z,19.10
2018-04-22T18:08:33.065Z,19.20
2018-04-22T18:10:59.299Z,15.17
2018-04-22T18:13:25.528Z,19.77
2018-04-22T18:15:52.540Z,16.80
2018-04-22T18:18:18.729Z,15.50
2018-04-22T18:20:44.966Z,17.43
2018-04-22T18:23:11.932Z,44.50
2018-04-22T18:25:38.160Z,32.97
2018-04-22T18:28:04.400Z,27.47
2018-04-22T18:30:30.598Z,22.77
2018-04-22T18:32:56.834Z,16.00
2018-04-22T18:35:23.091Z,19.73
2018-04-22T18:37:50.072Z,26.27
2018-04-22T18:40:16.327Z,18.50
2018-04-22T18:42:42.642Z,32.93
2018-04-22T18:45:08.891Z,22.43
2018-04-22T18:47:35.169Z,23.07
2018-04-22T18:50:02.149Z,17.87
2018-04-22T18:52:28.365Z,13.87
2018-04-22T18:54:54.573Z,12.90
2018-04-22T18:57:21.521Z,16.77
2018-04-22T18:59:47.759Z,9.07
2018-04-22T19:02:14.043Z,11.30
2018-04-22T19:04:40.241Z,11.77
2018-04-22T19:07:07.249Z,8.30
2018-04-22T19:09:33.532Z,10.30
2018-04-22T19:12:00.667Z,13.03
2018-04-22T19:14:26.879Z,9.77
2018-04-22T19:16:53.823Z,10.57
2018-04-22T19:19:20.807Z,7.87
2018-04-22T19:21:47.099Z,8.80
2018-04-22T19:24:13.367Z,7.73
2018-04-22T19:26:39.637Z,11.57
2018-04-22T19:29:05.889Z,8.97
2018-04-22T19:31:32.093Z,9.23
2018-04-22T19:33:58.320Z,7.50
2018-04-22T19:36:24.552Z,4.70
2018-04-22T19:38:51.560Z,8.20
2018-04-22T19:41:17.825Z,10.07
2018-04-22T19:43:44.792Z,8.37
2018-04-22T19:46:11.055Z,10.47
2018-04-22T19:48:38.097Z,14.67
2018-04-22T19:51:04.365Z,10.93
2018-04-22T19:53:30.562Z,8.33
2018-04-22T19:55:56.761Z,6.27
2018-04-22T19:58:22.965Z,11.23
2018-04-22T20:00:49.906Z,6.03
2018-04-22T20:03:16.883Z,7.37
2018-04-22T20:05:43.128Z,7.67
2018-04-22T20:08:09.348Z,7.73
2018-04-22T20:10:35.607Z,7.77
2018-04-22T20:13:01.826Z,7.57
2018-04-22T20:15:28.079Z,12.40
2018-04-22T20:17:55.011Z,4.53
2018-04-22T20:20:21.273Z,6.70
2018-04-22T20:22:47.473Z,10.10
2018-04-22T20:25:13.712Z,8.63
2018-04-22T20:27:40.683Z,7.30
2018-04-22T20:30:06.933Z,9.77
2018-04-22T20:32:33.126Z,11.90
2018-04-22T20:34:59.394Z,26.27
2018-04-22T20:37:26.354Z,36.00
2018-04-22T20:39:53.340Z,26.43
2018-04-22T20:42:20.310Z,36.03
2018-04-22T20:44:46.533Z,15.87
2018-04-22T20:47:13.285Z,25.20
2018-04-22T20:49:39.519Z,13.53
2018-04-22T20:52:05.760Z,14.60
2018-04-22T20:54:31.990Z,34.10
2018-04-22T20:56:58.254Z,23.53
2018-04-22T20:59:25.229Z,11.43
2018-04-22T21:01:51.633Z,13.60
2018-04-22T21:04:17.851Z,13.87
2018-04-22T21:06:44.055Z,14.47
2018-04-22T21:09:10.271Z,13.03
2018-04-22T21:11:37.239Z,10.03
2018-04-22T21:14:03.479Z,14.63
2018-04-22T21:16:29.675Z,18.57
2018-04-22T21:18:56.633Z,9.43
2018-04-22T21:21:23.580Z,15.30
2018-04-22T21:23:50.574Z,20.77
2018-04-22T21:26:17.528Z,16.80
2018-04-22T21:28:43.772Z,14.63
2018-04-22T21:31:09.981Z,14.33
2018-04-22T21:33:36.236Z,14.97
2018-04-22T21:36:02.471Z,11.67
2018-04-22T21:38:28.719Z,14.60
2018-04-22T21:40:54.993Z,9.37
2018-04-22T21:43:21.207Z,14.17
2018-04-22T21:45:47.428Z,9.97
2018-04-22T21:48:13.620Z,17.70
2018-04-22T21:50:40.631Z,18.03
2018-04-22T21:53:06.876Z,18.03
2018-04-22T21:55:34.549Z,20.77
2018-04-22T21:58:01.523Z,28.97
2018-04-22T22:00:27.752Z,26.67
2018-04-22T22:02:53.947Z,32.57
2018-04-22T22:05:20.159Z,24.97
2018-04-22T22:07:46.373Z,35.57
2018-04-22T22:10:12.636Z,27.67
2018-04-22T22:12:39.612Z,30.07
2018-04-22T22:15:06.557Z,50.03
2018-04-22T22:17:33.487Z,46.47
2018-04-22T22:20:00.473Z,43.37
2018-04-22T22:22:26.701Z,43.80
2018-04-22T22:24:52.904Z,45.73
2018-04-22T22:27:19.853Z,61.90
2018-04-22T22:29:46.088Z,65.57
2018-04-22T22:32:12.306Z,61.87
2018-04-22T22:34:38.509Z,60.30
2018-04-22T22:37:04.721Z,66.77
2018-04-22T22:39:31.689Z,76.60
2018-04-22T22:41:58.375Z,90.00
2018-04-22T22:44:25.318Z,68.40
2018-04-22T22:46:52.311Z,82.33
2018-04-22T22:49:18.576Z,71.77
2018-04-22T22:51:44.837Z,88.17
2018-04-22T22:54:11.770Z,89.30
2018-04-22T22:56:38.727Z,86.70
2018-04-22T22:59:05.753Z,88.53
2018-04-22T23:01:33.519Z,92.53
2018-04-22T23:03:59.729Z,90.13
2018-04-22T23:06:25.926Z,106.33
2018-04-22T23:08:52.157Z,87.80
2018-04-22T23:11:18.388Z,97.70
2018-04-22T23:13:44.580Z,100.73
2018-04-22T23:16:10.790Z,85.10
2018-04-22T23:18:37.748Z,81.37
2018-04-22T23:21:03.991Z,80.17
2018-04-22T23:23:30.199Z,89.57
2018-04-22T23:25:56.419Z,82.50
2018-04-22T23:28:22.635Z,78.30
2018-04-22T23:30:49.581Z,73.27
2018-04-22T23:33:15.823Z,80.37
2018-04-22T23:35:42.066Z,70.87
2018-04-22T23:38:08.310Z,74.80
2018-04-22T23:40:34.525Z,72.53
2018-04-22T23:43:01.477Z,76.10
2018-04-22T23:45:27.709Z,91.67
2018-04-22T23:47:53.929Z,67.53
2018-04-22T23:50:20.861Z,39.20
2018-04-22T23:52:47.089Z,44.30
2018-04-22T23:55:13.273Z,21.43
2018-04-22T23:57:40.223Z,29.87
